Time;durP1;ratioP1;P1;durP2;ratioP2;P2;SDS_P1;SDS_P2;PMS_P1;PMS_P2;Temp;Humidity;BMP_temperature;BMP_pressure;BME280_temperature;BME280_humidity;BME280_pressure;Samples;Min_cycle;Max_cycle;Signal;HPM_P1;HPM_P2
2022/05/30 00:01:47;;;;;;;2.88;1.50;;;16.30;65.00;;;;;;5043680;28;20642;-63
2022/05/30 00:04:13;;;;;;;2.35;1.50;;;16.30;65.10;;;;;;5023602;28;20041;-63
2022/05/30 00:06:38;;;;;;;1.27;1.10;;;16.20;64.90;;;;;;5023972;28;20086;-63
2022/05/30 00:09:04;;;;;;;1.73;1.13;;;16.20;65.00;;;;;;5038439;28;20083;-62
2022/05/30 00:11:30;;;;;;;3.03;1.20;;;16.20;65.10;;;;;;5023661;28;20036;-64
2022/05/30 00:13:56;;;;;;;2.75;1.73;;;16.20;65.10;;;;;;5037875;28;20074;-63
2022/05/30 00:16:25;;;;;;;2.90;1.70;;;16.20;65.10;;;;;;5023355;28;20494;-65
2022/05/30 00:18:50;;;;;;;3.60;1.80;;;16.20;65.90;;;;;;5036035;28;20474;-64
2022/05/30 00:21:20;;;;;;;3.47;1.75;;;16.20;65.40;;;;;;5039397;28;20037;-62
2022/05/30 00:23:45;;;;;;;3.10;1.80;;;16.20;65.20;;;;;;5037665;28;20112;-62
2022/05/30 00:26:11;;;;;;;2.08;1.52;;;16.20;65.30;;;;;;5040458;28;20096;-63
2022/05/30 00:28:36;;;;;;;2.88;1.75;;;16.10;65.40;;;;;;5021652;28;20078;-64
2022/05/30 00:31:03;;;;;;;2.38;1.77;;;16.10;65.30;;;;;;5040181;28;20029;-64
2022/05/30 00:33:28;;;;;;;3.30;1.58;;;16.10;65.40;;;;;;5037860;28;20452;-63
2022/05/30 00:35:54;;;;;;;1.85;1.20;;;16.10;65.50;;;;;;5039817;28;20070;-63
2022/05/30 00:38:19;;;;;;;4.00;1.55;;;16.10;65.50;;;;;;5041296;28;20130;-62
2022/05/30 00:40:45;;;;;;;3.00;1.60;;;16.10;65.70;;;;;;5039065;28;20092;-63
2022/05/30 00:43:32;;;;;;;3.50;1.58;;;16.00;65.70;;;;;;5035818;28;20033;-62
2022/05/30 00:46:00;;;;;;;1.38;0.95;;;16.10;65.90;;;;;;5038469;28;20036;-63
2022/05/30 00:48:36;;;;;;;2.63;1.35;;;16.00;65.90;;;;;;5035494;28;20025;-63
2022/05/30 00:51:06;;;;;;;3.35;1.60;;;16.30;66.10;;;;;;5040815;28;20029;-62
2022/05/30 00:53:33;;;;;;;2.13;1.20;;;16.00;66.00;;;;;;5018904;28;20037;-63
2022/05/30 00:56:00;;;;;;;7.63;1.40;;;16.00;66.30;;;;;;5040561;28;20075;-63
2022/05/30 00:58:27;;;;;;;2.55;1.25;;;16.00;66.30;;;;;;5037166;28;20040;-63
2022/05/30 01:00:52;;;;;;;1.85;1.05;;;15.90;66.20;;;;;;5038128;28;20041;-62
2022/05/30 01:08:46;;;;;;;1.42;1.13;;;15.90;66.40;;;;;;5035734;28;20048;-63
2022/05/30 01:11:12;;;;;;;1.30;0.80;;;15.90;66.60;;;;;;5038936;28;20052;-62
2022/05/30 01:13:38;;;;;;;1.77;1.10;;;15.90;66.80;;;;;;5037876;28;20165;-62
2022/05/30 01:16:05;;;;;;;1.73;1.08;;;15.90;66.80;;;;;;5039234;28;20041;-64
2022/05/30 01:18:36;;;;;;;1.65;1.10;;;15.80;66.80;;;;;;5038638;28;20021;-62
2022/05/30 01:21:35;;;;;;;2.10;0.90;;;15.80;66.90;;;;;;5023389;28;20037;-62
2022/05/30 01:24:23;;;;;;;3.28;0.90;;;15.80;66.90;;;;;;5035300;28;20079;-64
2022/05/30 01:27:09;;;;;;;1.50;1.08;;;15.80;67.00;;;;;;5037808;28;20032;-63
2022/05/30 01:29:38;;;;;;;2.05;1.00;;;15.80;67.30;;;;;;5037004;28;20025;-63
2022/05/30 01:32:03;;;;;;;1.40;0.93;;;15.80;67.40;;;;;;5038972;28;20518;-63
2022/05/30 01:34:29;;;;;;;3.40;1.10;;;15.70;67.40;;;;;;5038154;28;20044;-64
2022/05/30 01:36:55;;;;;;;1.58;1.00;;;15.70;67.50;;;;;;5037559;28;20051;-63
2022/05/30 01:39:20;;;;;;;1.98;1.15;;;15.70;67.60;;;;;;5016710;28;20489;-62
2022/05/30 01:41:46;;;;;;;2.63;1.10;;;15.70;67.60;;;;;;5041374;28;20020;-63
2022/05/30 01:44:11;;;;;;;2.40;1.20;;;15.60;67.70;;;;;;5038980;28;20036;-63
2022/05/30 01:46:37;;;;;;;0.85;0.85;;;15.70;67.80;;;;;;5024136;28;20311;-63
2022/05/30 01:49:03;;;;;;;3.90;0.93;;;15.60;67.90;;;;;;5035803;28;20071;-63
2022/05/30 01:51:28;;;;;;;3.65;1.27;;;15.60;68.00;;;;;;5038148;28;20029;-63
2022/05/30 01:53:54;;;;;;;2.10;1.17;;;15.60;68.00;;;;;;5035839;28;20048;-63
2022/05/30 01:56:20;;;;;;;2.25;1.13;;;15.60;68.20;;;;;;5039798;28;20040;-62
2022/05/30 01:58:46;;;;;;;1.60;0.75;;;15.60;68.20;;;;;;5036112;28;20548;-64
2022/05/30 02:01:20;;;;;;;1.90;0.90;;;15.50;68.20;;;;;;5038191;28;20128;-64
2022/05/30 02:03:46;;;;;;;2.72;1.30;;;15.50;68.40;;;;;;5035852;28;20086;-63
2022/05/30 02:06:11;;;;;;;4.07;1.10;;;15.50;69.10;;;;;;5023221;28;20067;-62
2022/05/30 02:08:37;;;;;;;1.48;1.02;;;15.40;68.60;;;;;;5037591;28;20057;-61
2022/05/30 02:11:03;;;;;;;2.80;0.93;;;15.40;68.60;;;;;;5036042;28;20029;-63
2022/05/30 02:13:28;;;;;;;1.05;0.90;;;15.40;68.70;;;;;;5039044;28;20060;-62
2022/05/30 02:18:38;;;;;;;1.35;1.05;;;15.40;68.90;;;;;;5034934;28;20090;-62
2022/05/30 02:21:03;;;;;;;2.10;1.20;;;15.40;69.10;;;;;;5038437;28;20392;-62
2022/05/30 02:23:29;;;;;;;1.30;1.20;;;15.40;69.20;;;;;;5037053;28;20416;-64
2022/05/30 02:25:54;;;;;;;2.35;1.40;;;15.30;69.00;;;;;;5037742;28;20282;-63
2022/05/30 02:28:20;;;;;;;4.47;1.63;;;15.30;69.10;;;;;;5038698;28;20520;-62
2022/05/30 02:30:45;;;;;;;2.50;1.60;;;15.30;69.10;;;;;;5038352;28;20944;-64
2022/05/30 02:38:39;;;;;;;3.45;1.77;;;15.20;69.60;;;;;;5035287;28;20036;-63
2022/05/30 02:41:05;;;;;;;3.25;1.70;;;15.20;69.70;;;;;;5037072;28;20037;-62
2022/05/30 02:43:30;;;;;;;2.80;1.80;;;15.20;69.70;;;;;;5036036;28;20140;-62
2022/05/30 02:45:56;;;;;;;2.00;1.52;;;15.10;69.80;;;;;;5038239;28;20165;-64
2022/05/30 02:48:21;;;;;;;1.55;1.40;;;15.10;69.90;;;;;;5036969;28;20124;-62
2022/05/30 02:50:47;;;;;;;2.85;1.48;;;15.10;69.80;;;;;;5037757;28;20264;-62
2022/05/30 02:53:12;;;;;;;4.57;1.83;;;15.10;69.90;;;;;;5040975;28;20583;-63
2022/05/30 02:55:38;;;;;;;2.78;1.83;;;15.10;70.10;;;;;;5034729;28;20053;-62
2022/05/30 02:58:03;;;;;;;1.83;1.50;;;15.10;70.10;;;;;;5036786;28;20090;-62
2022/05/30 03:00:29;;;;;;;4.10;2.05;;;15.00;70.20;;;;;;5035713;28;20100;-62
2022/05/30 03:02:54;;;;;;;1.98;1.65;;;15.00;70.30;;;;;;5021207;28;20089;-63
2022/05/30 03:05:20;;;;;;;2.92;2.00;;;15.00;70.30;;;;;;5037705;28;20056;-63
2022/05/30 03:07:45;;;;;;;3.88;2.33;;;15.00;70.50;;;;;;5039406;28;20055;-63
2022/05/30 03:10:11;;;;;;;3.95;2.22;;;15.00;70.70;;;;;;5036197;28;20116;-62
2022/05/30 03:12:37;;;;;;;4.15;2.47;;;14.90;70.70;;;;;;5038661;28;20041;-63
2022/05/30 03:15:02;;;;;;;3.28;2.03;;;14.90;70.90;;;;;;5037657;28;20017;-62
2022/05/30 03:17:28;;;;;;;3.95;1.65;;;14.90;71.00;;;;;;5038790;28;20040;-62
2022/05/30 03:19:53;;;;;;;3.33;2.10;;;14.80;71.10;;;;;;5037676;28;20029;-63
2022/05/30 03:22:20;;;;;;;2.55;2.00;;;14.80;71.10;;;;;;5039086;28;20493;-62
2022/05/30 03:24:45;;;;;;;3.42;2.20;;;14.80;71.10;;;;;;5037245;28;20406;-62
2022/05/30 03:27:11;;;;;;;2.45;1.73;;;14.80;71.20;;;;;;5038429;28;20044;-64
2022/05/30 03:29:36;;;;;;;2.70;1.65;;;14.80;71.40;;;;;;5038699;28;20060;-62
2022/05/30 03:32:02;;;;;;;2.10;1.65;;;14.80;71.30;;;;;;5037674;28;20095;-62
2022/05/30 03:34:27;;;;;;;1.95;1.50;;;14.80;71.40;;;;;;5034627;28;20401;-63
2022/05/30 03:36:53;;;;;;;1.95;1.67;;;14.70;71.60;;;;;;5036222;28;20021;-62
2022/05/30 03:39:18;;;;;;;4.03;1.80;;;14.70;71.70;;;;;;5020930;28;20013;-63
2022/05/30 03:41:45;;;;;;;2.53;1.23;;;14.70;71.90;;;;;;5036837;28;20461;-63
2022/05/30 03:44:10;;;;;;;3.25;1.73;;;14.60;71.90;;;;;;5022887;28;20451;-64
2022/05/30 03:46:36;;;;;;;3.50;1.58;;;14.60;71.90;;;;;;5042218;28;20112;-62
2022/05/30 03:49:01;;;;;;;2.13;1.42;;;14.60;72.00;;;;;;5039915;28;20037;-62
2022/05/30 03:51:27;;;;;;;2.33;1.42;;;14.60;71.90;;;;;;5039351;28;20112;-63
2022/05/30 03:53:52;;;;;;;2.35;1.55;;;14.60;72.10;;;;;;5037227;28;20041;-62
2022/05/30 03:56:19;;;;;;;3.47;1.40;;;14.60;72.10;;;;;;5040026;28;20017;-62
2022/05/30 03:58:44;;;;;;;4.68;1.52;;;14.50;72.00;;;;;;5022660;28;20345;-62
2022/05/30 04:01:10;;;;;;;2.92;1.45;;;14.50;72.10;;;;;;5024374;28;20041;-63
2022/05/30 04:03:36;;;;;;;2.42;1.40;;;14.50;72.00;;;;;;5038995;28;20107;-62
2022/05/30 04:06:01;;;;;;;3.22;1.88;;;14.50;72.00;;;;;;5042218;28;20036;-61
2022/05/30 04:08:27;;;;;;;2.25;1.75;;;14.50;72.00;;;;;;5022372;28;20021;-63
2022/05/30 04:10:52;;;;;;;9.50;2.65;;;14.50;72.00;;;;;;5039927;28;20025;-62
2022/05/30 04:13:18;;;;;;;9.05;2.22;;;14.50;71.90;;;;;;5038728;28;20055;-63
2022/05/30 04:15:43;;;;;;;2.55;1.88;;;14.50;71.90;;;;;;5038715;28;21926;-63
2022/05/30 04:18:09;;;;;;;4.47;2.03;;;14.50;71.90;;;;;;5042098;28;20067;-62
2022/05/30 04:20:34;;;;;;;3.65;2.10;;;14.50;71.80;;;;;;5043150;28;20135;-64
2022/05/30 04:23:00;;;;;;;23.77;3.55;;;14.50;71.80;;;;;;5039940;28;20078;-63
2022/05/30 04:25:26;;;;;;;21.02;4.30;;;14.40;71.70;;;;;;5040091;28;20029;-63
2022/05/30 04:27:52;;;;;;;13.68;3.10;;;14.40;71.70;;;;;;5023235;28;20043;-61
2022/05/30 04:30:17;;;;;;;14.65;3.63;;;14.40;71.70;;;;;;5023451;28;20029;-62
2022/05/30 04:32:43;;;;;;;16.65;3.03;;;14.40;71.70;;;;;;5025117;28;20141;-62
2022/05/30 04:35:10;;;;;;;17.77;3.13;;;14.40;71.70;;;;;;5040667;28;20044;-62
2022/05/30 04:37:36;;;;;;;14.35;2.75;;;14.40;71.60;;;;;;5040237;28;20021;-63
2022/05/30 04:40:02;;;;;;;7.95;2.40;;;14.40;71.70;;;;;;5037224;28;20041;-63
2022/05/30 04:42:27;;;;;;;12.07;2.65;;;14.40;71.60;;;;;;5040459;28;20226;-63
2022/05/30 04:44:53;;;;;;;15.07;2.70;;;14.40;71.60;;;;;;5023502;28;20035;-63
2022/05/30 04:47:18;;;;;;;16.45;2.78;;;14.40;71.50;;;;;;5042284;28;20041;-61
2022/05/30 04:49:46;;;;;;;16.00;2.58;;;14.40;71.60;;;;;;5039102;28;20039;-62
2022/05/30 04:52:12;;;;;;;8.68;2.30;;;14.40;71.70;;;;;;5023606;28;20437;-63
2022/05/30 04:54:38;;;;;;;8.15;2.03;;;14.30;71.70;;;;;;5037458;28;20029;-62
2022/05/30 04:57:05;;;;;;;12.55;2.67;;;14.30;72.00;;;;;;5039614;28;20106;-63
2022/05/30 04:59:30;;;;;;;11.90;2.33;;;14.30;72.10;;;;;;5022769;28;20055;-63
2022/05/30 05:01:56;;;;;;;15.90;2.65;;;14.30;72.10;;;;;;5038493;28;20033;-62
2022/05/30 05:04:21;;;;;;;11.68;2.22;;;14.30;72.20;;;;;;5023058;28;20029;-62
2022/05/30 05:06:49;;;;;;;12.90;2.60;;;14.60;72.20;;;;;;5040131;28;20128;-61
2022/05/30 05:09:17;;;;;;;8.35;2.00;;;14.30;72.10;;;;;;5039687;28;20537;-62
2022/05/30 05:11:43;;;;;;;11.35;2.40;;;14.30;72.20;;;;;;5036082;28;20025;-63
2022/05/30 05:14:09;;;;;;;11.65;2.13;;;14.30;72.20;;;;;;5020817;28;20551;-63
2022/05/30 05:16:35;;;;;;;8.50;2.67;;;14.30;72.10;;;;;;5038001;28;20055;-63
2022/05/30 05:19:01;;;;;;;12.40;2.28;;;14.20;72.00;;;;;;5019920;28;20187;-63
2022/05/30 05:21:46;;;;;;;7.50;1.85;;;14.30;72.10;;;;;;5024056;28;20092;-63
2022/05/30 05:24:12;;;;;;;5.75;1.65;;;14.20;72.10;;;;;;5006767;28;20891;-61
2022/05/30 05:26:45;;;;;;;7.60;2.10;;;14.30;72.90;;;;;;5038786;28;20025;-63
2022/05/30 05:29:11;;;;;;;7.72;2.25;;;14.30;72.30;;;;;;5029397;28;20162;-62
2022/05/30 05:31:36;;;;;;;11.88;1.90;;;14.20;72.30;;;;;;5036234;28;20140;-63
2022/05/30 05:34:05;;;;;;;6.85;1.80;;;14.20;72.40;;;;;;5036152;28;20059;-62
2022/05/30 05:36:32;;;;;;;4.28;2.00;;;14.20;72.30;;;;;;5018878;28;20132;-63
2022/05/30 05:38:58;;;;;;;3.13;1.60;;;14.30;72.40;;;;;;5035347;28;20538;-62
2022/05/30 05:41:24;;;;;;;5.03;1.95;;;14.30;72.50;;;;;;5036900;28;20041;-62
2022/05/30 05:43:50;;;;;;;8.80;2.00;;;14.20;72.50;;;;;;5004015;28;20465;-62
2022/05/30 05:46:17;;;;;;;5.95;1.75;;;14.20;72.50;;;;;;5037679;28;20161;-62
2022/05/30 05:48:43;;;;;;;4.38;1.90;;;14.20;72.60;;;;;;5020699;28;20025;-63
2022/05/30 05:51:08;;;;;;;4.10;1.58;;;14.20;72.70;;;;;;5039711;28;20025;-63
2022/05/30 05:53:34;;;;;;;5.75;2.17;;;14.20;72.90;;;;;;5033024;28;20075;-63
2022/05/30 05:56:08;;;;;;;5.72;1.40;;;14.20;72.90;;;;;;5036267;28;20128;-63
2022/05/30 05:58:33;;;;;;;6.13;2.03;;;14.20;73.10;;;;;;5034338;28;20128;-63
2022/05/30 06:01:08;;;;;;;14.38;2.40;;;14.20;73.50;;;;;;5035969;28;20029;-63
2022/05/30 06:03:34;;;;;;;17.17;2.40;;;14.10;74.10;;;;;;5036557;28;20040;-63
2022/05/30 06:05:59;;;;;;;5.65;1.60;;;14.10;74.60;;;;;;5039078;28;20052;-64
2022/05/30 06:08:25;;;;;;;4.80;1.90;;;14.10;74.90;;;;;;5037655;28;20388;-63
2022/05/30 06:11:05;;;;;;;3.17;1.60;;;14.00;75.00;;;;;;5037465;28;20480;-62
2022/05/30 06:13:37;;;;;;;7.82;2.00;;;14.00;75.40;;;;;;5021605;28;20370;-64
2022/05/30 06:16:17;;;;;;;5.20;1.67;;;13.90;75.70;;;;;;5034321;28;20028;-62
2022/05/30 06:18:43;;;;;;;3.58;1.60;;;13.90;76.00;;;;;;5035874;28;20048;-63
2022/05/30 06:21:09;;;;;;;4.28;1.63;;;13.90;76.10;;;;;;5033038;28;20029;-61
2022/05/30 06:23:34;;;;;;;5.60;2.10;;;13.90;76.20;;;;;;5031520;28;20025;-62
2022/05/30 06:26:04;;;;;;;14.68;1.95;;;13.80;76.70;;;;;;5034015;28;20351;-62
2022/05/30 06:28:30;;;;;;;4.30;1.63;;;13.80;76.90;;;;;;5032950;28;20037;-63
2022/05/30 06:30:55;;;;;;;8.68;1.95;;;13.90;77.00;;;;;;5034103;28;20029;-63
2022/05/30 06:33:22;;;;;;;9.20;2.38;;;13.80;77.80;;;;;;5038248;28;20092;-61
2022/05/30 06:35:47;;;;;;;10.43;2.72;;;13.80;77.20;;;;;;5016048;28;20029;-62
2022/05/30 06:38:14;;;;;;;13.82;2.70;;;13.80;77.10;;;;;;5031528;28;20042;-62
2022/05/30 06:40:40;;;;;;;8.77;2.10;;;13.80;77.20;;;;;;5033460;28;20358;-64
2022/05/30 06:43:06;;;;;;;5.90;2.47;;;13.80;77.30;;;;;;5037067;28;20041;-62
2022/05/30 06:45:32;;;;;;;13.07;2.83;;;13.80;77.50;;;;;;5037016;28;20214;-62
2022/05/30 06:47:58;;;;;;;12.18;2.78;;;13.80;77.70;;;;;;5037238;28;20063;-64
2022/05/30 06:50:24;;;;;;;6.28;2.28;;;13.80;77.70;;;;;;5037684;28;20489;-65
2022/05/30 06:52:50;;;;;;;13.98;2.70;;;13.90;77.80;;;;;;5003351;28;20536;-64
2022/05/30 06:55:15;;;;;;;24.10;2.80;;;13.80;77.60;;;;;;5039351;28;20075;-64
2022/05/30 07:00:25;;;;;;;7.90;2.50;;;13.90;77.50;;;;;;5025289;28;20085;-61
2022/05/30 07:02:51;;;;;;;15.93;2.50;;;13.90;77.60;;;;;;5032023;28;20248;-62
2022/05/30 07:05:17;;;;;;;16.27;3.55;;;13.90;77.70;;;;;;5031379;28;20029;-64
2022/05/30 07:07:42;;;;;;;21.17;3.15;;;13.90;77.50;;;;;;5035230;28;20539;-63
2022/05/30 07:10:09;;;;;;;22.83;3.05;;;13.90;77.60;;;;;;5034525;28;20028;-63
2022/05/30 07:12:34;;;;;;;20.67;3.13;;;13.90;77.50;;;;;;5038047;28;20090;-65
2022/05/30 07:15:00;;;;;;;15.18;2.58;;;14.00;77.50;;;;;;5036342;28;20041;-62
2022/05/30 07:17:25;;;;;;;17.75;2.63;;;14.00;77.10;;;;;;5035089;28;20127;-65
2022/05/30 07:19:51;;;;;;;10.70;2.78;;;13.90;77.20;;;;;;5033741;28;20116;-63
2022/05/30 07:22:17;;;;;;;11.45;2.50;;;14.00;77.30;;;;;;5034702;28;20044;-63
2022/05/30 07:24:43;;;;;;;7.38;1.95;;;14.00;77.10;;;;;;5041024;28;20021;-63
2022/05/30 07:27:09;;;;;;;7.82;2.10;;;14.00;77.00;;;;;;5038307;28;20025;-64
2022/05/30 07:29:34;;;;;;;6.15;2.15;;;14.00;76.90;;;;;;5018151;28;20620;-61
2022/05/30 07:32:00;;;;;;;7.97;2.45;;;14.00;76.60;;;;;;5016260;28;20107;-62
2022/05/30 07:34:26;;;;;;;5.18;2.10;;;14.00;76.30;;;;;;5037277;28;20033;-62
2022/05/30 07:36:52;;;;;;;6.43;1.80;;;14.10;76.00;;;;;;5037037;28;20032;-62
2022/05/30 07:39:18;;;;;;;8.38;2.10;;;14.10;75.80;;;;;;5018829;28;20037;-62
2022/05/30 07:41:44;;;;;;;10.43;1.83;;;14.10;75.70;;;;;;5035672;28;20116;-63
2022/05/30 07:44:09;;;;;;;5.07;1.95;;;14.10;75.60;;;;;;5005987;28;20170;-64
2022/05/30 07:46:35;;;;;;;19.67;3.20;;;14.10;75.40;;;;;;5019314;28;20033;-63
2022/05/30 07:49:00;;;;;;;6.78;2.03;;;14.10;75.00;;;;;;5032539;28;20496;-63
2022/05/30 07:51:26;;;;;;;5.72;2.00;;;14.10;74.60;;;;;;5038823;28;20036;-62
2022/05/30 07:53:51;;;;;;;12.75;2.35;;;14.10;74.30;;;;;;5022343;28;20021;-62
2022/05/30 07:56:17;;;;;;;6.00;1.77;;;14.10;74.10;;;;;;5035476;28;20060;-63
2022/05/30 07:58:43;;;;;;;5.43;2.00;;;14.10;73.60;;;;;;5034951;28;21308;-64
2022/05/30 08:01:14;;;;;;;9.48;1.80;;;14.10;73.20;;;;;;5035541;28;20059;-62
2022/05/30 08:03:40;;;;;;;10.48;2.38;;;14.10;73.30;;;;;;5039050;28;20025;-63
2022/05/30 08:06:08;;;;;;;12.52;2.28;;;14.10;73.30;;;;;;5022857;28;20044;-62
2022/05/30 08:08:33;;;;;;;10.18;2.70;;;14.10;73.10;;;;;;5019814;28;20117;-64
2022/05/30 08:10:59;;;;;;;45.78;5.88;;;14.20;73.20;;;;;;5035533;28;20056;-62
2022/05/30 08:13:24;;;;;;;30.75;3.95;;;14.10;72.70;;;;;;5038521;28;20037;-64
2022/05/30 08:15:50;;;;;;;16.00;4.00;;;14.20;72.40;;;;;;5039009;28;20064;-64
2022/05/30 08:18:17;;;;;;;55.47;5.65;;;14.20;72.10;;;;;;5035644;28;20120;-62
2022/05/30 08:20:43;;;;;;;47.20;5.90;;;14.20;72.10;;;;;;5020655;28;20083;-63
2022/05/30 08:23:08;;;;;;;29.02;5.68;;;14.20;72.20;;;;;;5036435;28;20037;-63
2022/05/30 08:25:34;;;;;;;21.10;3.95;;;14.20;72.20;;;;;;5032421;28;20060;-63
2022/05/30 08:27:59;;;;;;;18.45;3.05;;;14.30;72.10;;;;;;5037326;28;20060;-62
2022/05/30 08:30:25;;;;;;;27.65;3.60;;;14.30;71.60;;;;;;5025036;28;20123;-62
2022/05/30 08:32:50;;;;;;;12.88;2.90;;;14.40;71.70;;;;;;5040153;28;20314;-63
2022/05/30 08:35:17;;;;;;;29.75;4.55;;;14.40;70.90;;;;;;5037078;28;20059;-63
2022/05/30 08:37:43;;;;;;;36.22;4.70;;;14.40;70.90;;;;;;5019107;28;20028;-64
2022/05/30 08:43:03;;;;;;;29.92;3.58;;;14.40;70.90;;;;;;5037462;28;20122;-64
2022/05/30 08:45:28;;;;;;;22.70;3.67;;;14.40;70.60;;;;;;5036930;28;20457;-63
2022/05/30 08:47:56;;;;;;;47.35;5.25;;;14.40;70.40;;;;;;5037596;28;20601;-63
2022/05/30 08:50:40;;;;;;;20.02;3.80;;;14.50;70.30;;;;;;5035093;28;20154;-62
2022/05/30 08:53:31;;;;;;;20.33;3.42;;;14.50;70.40;;;;;;5039102;28;20086;-63
2022/05/30 08:56:10;;;;;;;20.95;3.55;;;14.50;70.20;;;;;;5041707;28;20017;-62
2022/05/30 08:59:11;;;;;;;21.30;3.88;;;14.60;69.80;;;;;;5038232;28;20035;-63
2022/05/30 09:01:39;;;;;;;25.33;3.42;;;14.60;69.80;;;;;;5036347;28;20040;-61
2022/05/30 09:04:25;;;;;;;33.78;4.00;;;14.60;69.70;;;;;;5020501;28;20033;-61
2022/05/30 09:06:58;;;;;;;27.50;5.32;;;14.60;69.50;;;;;;5038355;28;20040;-64
2022/05/30 09:09:29;;;;;;;21.92;3.90;;;14.60;69.30;;;;;;5036133;28;20010;-62
2022/05/30 09:12:14;;;;;;;24.63;3.42;;;14.70;69.10;;;;;;5002928;28;20064;-64
2022/05/30 09:14:45;;;;;;;38.13;5.88;;;14.70;69.00;;;;;;5037744;28;20764;-64
2022/05/30 09:17:16;;;;;;;40.95;4.95;;;14.80;68.60;;;;;;5033181;28;20589;-62
2022/05/30 09:19:42;;;;;;;52.60;8.30;;;14.80;68.60;;;;;;5004455;28;20021;-63
2022/05/30 09:22:07;;;;;;;47.70;6.32;;;14.80;68.10;;;;;;5021378;28;20102;-63
2022/05/30 09:24:33;;;;;;;24.27;4.20;;;14.80;68.00;;;;;;5005211;28;20040;-63
2022/05/30 09:27:00;;;;;;;43.88;5.72;;;15.00;68.00;;;;;;5037442;28;20105;-62
2022/05/30 09:29:46;;;;;;;36.35;5.53;;;14.90;67.80;;;;;;5037425;28;20043;-63
2022/05/30 09:32:32;;;;;;;35.17;5.15;;;15.00;67.50;;;;;;5020113;28;20171;-64
2022/05/30 09:34:57;;;;;;;26.08;4.53;;;15.00;67.10;;;;;;5034658;28;20056;-63
2022/05/30 09:37:34;;;;;;;51.75;6.53;;;15.00;66.80;;;;;;5017802;28;20042;-62
2022/05/30 09:40:00;;;;;;;40.25;4.78;;;15.10;66.70;;;;;;5030816;28;20434;-62
2022/05/30 09:42:29;;;;;;;30.65;4.30;;;15.10;66.50;;;;;;5032876;28;20059;-62
2022/05/30 09:44:58;;;;;;;24.25;4.15;;;15.20;66.50;;;;;;5028898;28;20022;-63
2022/05/30 09:47:24;;;;;;;34.38;6.22;;;15.20;66.10;;;;;;5029010;28;20034;-61
2022/05/30 09:49:53;;;;;;;38.80;4.78;;;15.20;65.80;;;;;;5028078;28;20044;-65
2022/05/30 09:52:25;;;;;;;35.60;4.85;;;15.30;65.60;;;;;;5017017;28;20036;-63
2022/05/30 09:54:50;;;;;;;30.33;4.35;;;15.30;65.20;;;;;;5028796;28;20045;-62
2022/05/30 09:57:24;;;;;;;26.83;5.15;;;15.30;65.20;;;;;;5028868;28;20056;-64
2022/05/30 09:59:52;;;;;;;29.23;4.50;;;15.40;65.30;;;;;;5015629;28;20088;-63
2022/05/30 10:02:31;;;;;;;21.77;3.72;;;15.50;65.20;;;;;;5032004;28;20025;-63
2022/05/30 10:05:02;;;;;;;31.70;4.85;;;15.50;64.80;;;;;;5020082;28;20097;-62
2022/05/30 10:07:28;;;;;;;36.47;4.70;;;15.50;64.80;;;;;;5016655;28;20052;-63
2022/05/30 10:09:57;;;;;;;22.48;4.05;;;15.60;64.60;;;;;;4991296;28;20041;-64
2022/05/30 10:12:40;;;;;;;23.25;4.72;;;15.60;64.30;;;;;;5006770;28;21454;-64
2022/05/30 10:15:32;;;;;;;41.53;4.68;;;15.70;64.00;;;;;;5007642;28;20516;-63
2022/05/30 10:18:22;;;;;;;30.40;5.10;;;15.70;63.70;;;;;;5006201;28;20195;-62
2022/05/30 10:21:08;;;;;;;36.88;5.05;;;15.80;63.50;;;;;;5006865;28;20044;-61
2022/05/30 10:30:00;;;;;;;24.77;3.90;;;15.90;62.50;;;;;;5006474;28;21382;-62
2022/05/30 10:32:34;;;;;;;25.57;3.60;;;15.90;62.40;;;;;;4995290;28;20049;-61
2022/05/30 10:35:10;;;;;;;19.38;3.58;;;16.00;62.30;;;;;;4996630;28;21248;-60
2022/05/30 10:37:54;;;;;;;;;;;16.00;62.10;;;;;;5002504;28;20071;-63
2022/05/30 10:40:41;;;;;;;16.15;3.65;;;16.10;61.90;;;;;;4997805;28;19924;-63
2022/05/30 10:43:13;;;;;;;20.13;3.50;;;16.10;61.30;;;;;;5014077;28;20033;-63
2022/05/30 10:45:46;;;;;;;25.88;3.80;;;16.20;60.90;;;;;;5005578;28;21247;-63
2022/05/30 10:48:21;;;;;;;17.65;2.83;;;16.30;60.60;;;;;;5001600;28;20136;-63
2022/05/30 10:51:17;;;;;;;13.83;3.07;;;16.40;60.40;;;;;;5002241;28;20187;-64
2022/05/30 10:53:57;;;;;;;27.03;4.27;;;16.40;59.90;;;;;;5015805;28;20311;-62
2022/05/30 10:56:31;;;;;;;18.50;4.05;;;16.50;59.60;;;;;;5010148;28;20044;-61
2022/05/30 10:59:03;;;;;;;27.77;5.03;;;16.50;59.90;;;;;;5008558;28;20059;-62
2022/05/30 11:01:49;;;;;;;24.80;3.47;;;16.60;59.60;;;;;;5004110;28;20029;-61
2022/05/30 11:04:27;;;;;;;16.55;2.83;;;16.70;59.30;;;;;;4990456;28;20032;-62
2022/05/30 11:06:53;;;;;;;24.48;3.67;;;16.80;58.80;;;;;;5005253;28;20032;-62
2022/05/30 11:09:31;;;;;;;19.80;2.85;;;16.90;58.70;;;;;;5009174;28;20041;-63
2022/05/30 11:12:02;;;;;;;15.57;3.17;;;17.00;58.50;;;;;;5008591;28;20986;-61
2022/05/30 11:14:34;;;;;;;27.25;4.25;;;17.10;58.50;;;;;;4999444;28;20132;-63
2022/05/30 11:17:17;;;;;;;31.02;2.83;;;17.20;58.30;;;;;;5008388;28;20033;-62
2022/05/30 11:19:54;;;;;;;16.85;2.90;;;17.40;58.10;;;;;;5007552;28;20497;-61
2022/05/30 11:22:30;;;;;;;12.88;2.42;;;17.50;57.60;;;;;;5010876;28;20026;-60
2022/05/30 11:24:55;;;;;;;10.57;2.08;;;17.60;57.20;;;;;;5011163;28;20049;-61
2022/05/30 11:27:37;;;;;;;9.70;2.00;;;17.60;57.00;;;;;;4994904;28;20033;-61
2022/05/30 11:30:33;;;;;;;13.93;2.72;;;17.70;57.00;;;;;;5006786;28;20118;-60
2022/05/30 11:33:22;;;;;;;11.55;2.92;;;17.80;57.20;;;;;;5000511;28;20069;-60
2022/05/30 11:36:33;;;;;;;8.50;2.55;;;17.90;56.90;;;;;;5017673;28;20063;-62
2022/05/30 11:39:30;;;;;;;12.50;3.13;;;17.90;56.70;;;;;;5024872;28;20148;-61
2022/05/30 11:41:59;;;;;;;12.18;2.08;;;18.00;56.60;;;;;;5037230;28;20029;-62
2022/05/30 11:45:04;;;;;;;9.63;2.72;;;18.10;56.60;;;;;;5032476;28;20052;-63
2022/05/30 11:48:02;;;;;;;9.73;2.63;;;18.10;56.20;;;;;;5023059;28;20039;-63
2022/05/30 11:50:45;;;;;;;15.98;2.20;;;18.20;56.20;;;;;;5036787;28;20037;-61
2022/05/30 11:53:26;;;;;;;10.88;2.33;;;18.30;55.70;;;;;;5015424;28;20452;-62
2022/05/30 11:55:57;;;;;;;8.00;2.00;;;18.40;55.00;;;;;;5032821;28;20029;-61
2022/05/30 11:58:41;;;;;;;10.65;1.90;;;18.40;55.00;;;;;;5037622;28;20044;-62
2022/05/30 12:01:07;;;;;;;7.93;1.55;;;18.50;54.90;;;;;;5037670;28;20100;-62
2022/05/30 12:04:05;;;;;;;7.03;2.10;;;18.50;54.60;;;;;;5035837;28;20527;-62
2022/05/30 12:06:37;;;;;;;6.00;1.30;;;18.60;54.10;;;;;;5038766;28;20037;-61
2022/05/30 12:09:25;;;;;;;10.68;1.58;;;18.70;54.20;;;;;;5038251;28;20833;-61
2022/05/30 12:12:35;;;;;;;14.45;2.53;;;18.80;54.30;;;;;;5036180;28;20163;-62
2022/05/30 12:15:25;;;;;;;7.57;1.50;;;18.90;54.20;;;;;;5040560;28;20033;-61
2022/05/30 12:24:11;;;;;;;7.22;1.52;;;19.10;53.80;;;;;;5038126;28;20090;-61
2022/05/30 12:26:48;;;;;;;2.88;1.25;;;19.20;53.00;;;;;;5039220;28;20160;-62
2022/05/30 12:29:37;;;;;;;9.90;1.98;;;19.20;53.00;;;;;;5038960;28;20071;-62
2022/05/30 12:32:11;;;;;;;5.18;1.55;;;19.30;53.60;;;;;;5039347;28;20041;-62
2022/05/30 12:35:18;;;;;;;14.50;1.50;;;19.30;52.50;;;;;;5034769;28;20045;-62
2022/05/30 12:37:48;;;;;;;;;;;19.50;52.60;;;;;;5030410;28;20033;-61
2022/05/30 12:40:25;;;;;;;7.93;1.48;;;19.50;52.40;;;;;;5030199;28;19913;-61
2022/05/30 12:43:10;;;;;;;7.28;1.20;;;19.60;51.90;;;;;;5039524;28;20032;-62
2022/05/30 12:45:36;;;;;;;11.77;1.63;;;19.70;51.70;;;;;;5035850;28;20532;-61
2022/05/30 12:48:18;;;;;;;7.45;1.45;;;19.70;51.40;;;;;;5030773;28;20029;-61
2022/05/30 12:50:58;;;;;;;11.20;1.75;;;19.80;51.30;;;;;;5024240;28;20117;-62
2022/05/30 12:53:45;;;;;;;9.05;1.27;;;19.80;50.90;;;;;;5036218;28;20087;-62
2022/05/30 12:56:10;;;;;;;8.23;1.85;;;19.90;50.80;;;;;;5034250;28;20120;-62
2022/05/30 12:58:35;;;;;;;12.45;2.08;;;20.00;50.80;;;;;;5040811;28;20130;-61
2022/05/30 13:01:08;;;;;;;19.75;2.17;;;20.10;50.80;;;;;;5038131;28;20017;-61
2022/05/30 13:03:36;;;;;;;9.00;1.88;;;20.10;50.60;;;;;;5036268;28;20041;-61
2022/05/30 13:06:16;;;;;;;12.63;1.88;;;20.20;50.60;;;;;;5021661;28;20052;-63
2022/05/30 13:09:07;;;;;;;10.57;1.80;;;20.30;50.20;;;;;;5025450;28;20057;-62
2022/05/30 13:11:33;;;;;;;8.95;1.70;;;20.40;50.10;;;;;;5028260;28;20060;-61
2022/05/30 13:14:10;;;;;;;17.60;2.35;;;20.50;49.90;;;;;;5034056;28;20151;-61
2022/05/30 13:16:42;;;;;;;27.05;3.42;;;20.60;49.90;;;;;;5020900;28;20049;-61
2022/05/30 13:19:12;;;;;;;14.40;2.38;;;20.60;50.00;;;;;;5033392;28;20021;-61
2022/05/30 13:21:43;;;;;;;17.98;3.05;;;20.80;50.00;;;;;;5032153;28;20037;-61
2022/05/30 13:24:33;;;;;;;24.25;2.72;;;20.80;50.20;;;;;;5032763;28;20073;-63
2022/05/30 13:26:59;;;;;;;23.17;3.47;;;20.90;49.50;;;;;;5021000;28;20029;-61
2022/05/30 13:29:33;;;;;;;14.60;2.78;;;21.00;49.40;;;;;;5034382;28;20033;-62
2022/05/30 13:31:58;;;;;;;22.88;3.05;;;21.10;49.00;;;;;;5038426;28;20043;-63